Time;durP1;ratioP1;P1;durP2;ratioP2;P2;SDS_P1;SDS_P2;PMS_P1;PMS_P2;Temp;Humidity;BMP_temperature;BMP_pressure;BME280_temperature;BME280_humidity;BME280_pressure;Samples;Min_cycle;Max_cycle;Signal;HPM_P1;HPM_P2
2022/07/31 00:01:31;;;;;;;9.80;9.00;;;;;;;-143.84;76.95;45064.31;5072507;28;20897;-72
2022/07/31 00:03:58;;;;;;;9.63;8.73;;;;;;;-143.84;77.00;45045.25;5073330;28;20432;-72
2022/07/31 00:06:25;;;;;;;10.00;8.87;;;;;;;-143.84;77.05;45043.34;5073276;28;20440;-72
2022/07/31 00:08:52;;;;;;;10.60;9.57;;;;;;;-143.84;77.22;45037.66;5073526;28;20436;-72
2022/07/31 00:11:19;;;;;;;10.37;9.37;;;;;;;-143.84;77.23;45056.69;5073590;28;20561;-72
2022/07/31 00:13:46;;;;;;;10.17;9.17;;;;;;;-143.84;77.32;45079.53;5073883;28;20445;-72
2022/07/31 00:16:15;;;;;;;9.97;8.90;;;;;;;-143.84;77.21;45045.25;5074045;28;20996;-72
2022/07/31 00:18:43;;;;;;;8.53;7.73;;;;;;;-143.84;77.29;45030.03;5073810;28;20450;-72
2022/07/31 00:21:10;;;;;;;9.53;8.60;;;;;;;-143.84;77.88;45045.25;5073586;28;21074;-72
2022/07/31 00:23:37;;;;;;;9.17;8.50;;;;;;;-143.84;77.88;45033.84;5073813;28;20480;-72
2022/07/31 00:26:04;;;;;;;9.53;8.83;;;;;;;-143.84;77.77;45049.06;5073918;28;20449;-72
2022/07/31 00:28:31;;;;;;;9.70;9.00;;;;;;;-143.84;77.89;45071.91;5073834;28;20433;-72
2022/07/31 00:30:59;;;;;;;10.17;9.13;;;;;;;-143.84;78.03;45050.97;5073594;28;20981;-72
2022/07/31 00:33:27;;;;;;;12.03;8.47;;;;;;;-143.84;77.50;45033.84;5073612;28;20882;-72
2022/07/31 00:35:54;;;;;;;10.27;9.33;;;;;;;-143.84;77.17;45054.78;5074011;28;20460;-72
2022/07/31 00:38:21;;;;;;;10.57;9.47;;;;;;;-143.84;76.60;45056.69;5073412;28;20506;-72
2022/07/31 00:40:49;;;;;;;10.90;9.20;;;;;;;-143.84;76.66;45043.34;5073562;28;21196;-72
2022/07/31 00:43:17;;;;;;;10.17;9.17;;;;;;;-143.84;76.84;45045.25;5073636;28;20444;-72
2022/07/31 00:45:45;;;;;;;9.57;8.60;;;;;;;-143.84;77.28;45033.84;5073253;28;20444;-72
2022/07/31 00:48:12;;;;;;;11.00;9.30;;;;;;;-143.84;77.10;45043.34;5073263;28;20436;-72
2022/07/31 00:50:41;;;;;;;9.20;8.50;;;;;;;-143.84;77.12;45047.16;5072938;28;20465;-72
2022/07/31 00:53:08;;;;;;;12.17;10.00;;;;;;;-143.84;76.93;45045.25;5072684;28;20444;-72
2022/07/31 00:55:35;;;;;;;10.03;9.10;;;;;;;-143.84;76.66;45043.34;5072952;28;20433;-72
2022/07/31 00:58:02;;;;;;;8.87;8.07;;;;;;;-143.84;76.56;45045.25;5072963;28;20436;-72
2022/07/31 01:00:29;;;;;;;10.73;9.87;;;;;;;-143.84;76.84;45041.44;5072330;28;20473;-72
2022/07/31 01:02:57;;;;;;;10.20;9.30;;;;;;;-143.84;77.01;45039.53;5072326;28;20453;-72
2022/07/31 01:05:25;;;;;;;11.00;10.00;;;;;;;-143.84;76.75;45071.91;5072808;28;20429;-72
2022/07/31 01:07:53;;;;;;;9.70;8.77;;;;;;;-143.84;75.98;45054.78;5072902;28;20500;-73
2022/07/31 01:10:34;;;;;;;11.73;10.47;;;;;;;-143.84;75.41;45016.69;5072408;28;20488;-72
2022/07/31 01:13:07;;;;;;;10.13;9.17;;;;;;;-143.84;75.36;45045.25;5071481;28;20437;-72
2022/07/31 01:15:37;;;;;;;11.17;10.10;;;;;;;-143.84;76.04;45045.25;5072586;28;20479;-72
2022/07/31 01:18:06;;;;;;;10.07;8.27;;;;;;;-143.84;76.28;45073.81;5072253;28;20877;-72
2022/07/31 01:20:34;;;;;;;16.70;9.30;;;;;;;-143.84;76.92;45068.13;5072725;28;20469;-72
2022/07/31 01:23:22;;;;;;;10.10;9.10;;;;;;;-143.84;78.20;45028.13;5083036;28;20699;-72
2022/07/31 01:26:03;;;;;;;10.50;9.60;;;;;;;-143.84;80.36;45030.03;5092738;28;20505;-72
2022/07/31 01:28:52;;;;;;;19.03;11.03;;;;;;;-143.84;81.84;45039.53;5092952;28;20507;-72
2022/07/31 01:31:26;;;;;;;11.33;10.37;;;;;;;-143.84;84.25;45024.31;5092742;28;20999;-72
2022/07/31 01:33:59;;;;;;;15.17;10.27;;;;;;;-143.84;86.25;45062.41;5092678;28;20443;-72
2022/07/31 01:36:33;;;;;;;13.70;11.80;;;;;;;-143.84;86.13;45045.25;5092719;28;20824;-72
2022/07/31 01:39:01;;;;;;;13.13;9.53;;;;;;;-143.84;84.94;45041.44;5092620;28;20509;-72
2022/07/31 01:41:32;;;;;;;10.93;8.73;;;;;;;-143.84;82.98;45037.66;5092887;28;20536;-72
2022/07/31 01:44:03;;;;;;;9.73;8.83;;;;;;;-143.84;81.37;45056.69;5092396;28;20995;-72
2022/07/31 01:46:33;;;;;;;17.00;11.43;;;;;;;-143.84;80.45;45060.50;5092395;28;20475;-72
2022/07/31 01:49:02;;;;;;;17.80;13.60;;;;;;;-143.84;80.96;45026.22;5092405;28;20444;-72
2022/07/31 01:51:31;;;;;;;20.03;16.20;;;;;;;-143.84;81.73;45039.53;5092129;28;20497;-72
2022/07/31 01:54:02;;;;;;;21.00;15.50;;;;;;;-143.84;83.50;45043.34;5092534;28;20501;-72
2022/07/31 01:56:38;;;;;;;26.43;17.40;;;;;;;-143.84;84.48;45050.97;5092440;28;20436;-72
2022/07/31 01:59:10;;;;;;;20.63;17.10;;;;;;;-143.84;85.34;45033.84;5092212;28;20440;-72
2022/07/31 02:01:40;;;;;;;23.70;16.90;;;;;;;-143.84;85.37;45049.06;5091906;28;20476;-72
2022/07/31 02:04:08;;;;;;;22.40;15.67;;;;;;;-143.84;85.20;45031.94;5092123;28;20854;-72
2022/07/31 02:06:36;;;;;;;16.10;14.50;;;;;;;-143.84;85.00;45031.94;5092391;28;20439;-72
2022/07/31 02:09:04;;;;;;;17.83;13.90;;;;;;;-143.84;84.30;45062.41;5091987;28;20497;-72
2022/07/31 02:11:31;;;;;;;20.10;13.10;;;;;;;-143.84;84.11;45077.63;5091761;28;20475;-72
2022/07/31 02:14:00;;;;;;;29.50;13.70;;;;;;;-143.84;83.75;45050.97;5092096;28;20435;-72
2022/07/31 02:16:29;;;;;;;12.83;11.53;;;;;;;-143.84;82.75;45068.13;5092227;28;20466;-72
2022/07/31 02:18:59;;;;;;;13.70;12.27;;;;;;;-143.84;82.07;45054.78;5091818;28;20432;-72
2022/07/31 02:21:27;;;;;;;14.40;12.67;;;;;;;-143.84;82.41;45039.53;5091937;28;20471;-72
2022/07/31 02:23:55;;;;;;;16.07;14.33;;;;;;;-143.84;83.92;45037.66;5091558;28;20534;-72
2022/07/31 02:26:24;;;;;;;17.03;14.40;;;;;;;-143.84;83.75;45035.75;5091049;28;20435;-72
2022/07/31 02:28:53;;;;;;;14.00;12.50;;;;;;;-143.84;83.58;45039.53;5091407;28;21010;-72
2022/07/31 02:31:23;;;;;;;16.00;13.00;;;;;;;-143.84;82.91;45058.59;5091834;28;20482;-72
2022/07/31 02:33:52;;;;;;;20.30;13.20;;;;;;;-143.84;82.55;45052.88;5091104;28;20436;-72
2022/07/31 02:36:21;;;;;;;14.20;12.70;;;;;;;-143.84;82.44;45115.72;5091136;28;20447;-72
2022/07/31 02:38:50;;;;;;;13.60;12.27;;;;;;;-143.84;81.70;45050.97;5091432;28;20937;-72
2022/07/31 02:41:19;;;;;;;14.03;11.70;;;;;;;-143.84;81.25;45079.53;5091589;28;20467;-72
2022/07/31 02:43:48;;;;;;;12.93;11.63;;;;;;;-143.84;81.01;45106.19;5091292;28;20509;-72
2022/07/31 02:46:16;;;;;;;11.60;10.47;;;;;;;-143.84;79.07;45049.06;5091277;28;20887;-72
2022/07/31 02:48:43;;;;;;;13.73;11.60;;;;;;;-143.84;78.65;45039.53;5091577;28;20447;-72
2022/07/31 02:51:12;;;;;;;11.97;10.77;;;;;;;-143.84;78.91;45052.88;5100773;28;20566;-72
2022/07/31 02:53:39;;;;;;;13.03;10.90;;;;;;;-143.84;78.95;45049.06;5105103;28;20467;-72
2022/07/31 02:56:08;;;;;;;15.30;11.20;;;;;;;-143.84;78.69;45033.84;5103446;28;20432;-72
2022/07/31 02:58:35;;;;;;;12.13;10.83;;;;;;;-143.84;78.40;45062.41;5091137;28;20447;-73
2022/07/31 03:01:04;;;;;;;12.00;10.40;;;;;;;-143.84;78.08;45033.84;5090112;28;20483;-72
2022/07/31 03:03:32;;;;;;;13.17;9.27;;;;;;;-143.84;76.28;45024.31;5091049;28;20447;-72
2022/07/31 03:09:57;;;;;;;10.30;9.33;;;;;;;-143.84;75.81;45026.22;5091096;28;20436;-72
2022/07/31 03:12:25;;;;;;;10.23;9.33;;;;;;;-143.84;75.73;45037.66;5089410;28;20471;-72
2022/07/31 03:14:55;;;;;;;10.60;9.50;;;;;;;-143.84;75.44;45024.31;5089766;28;20937;-72
2022/07/31 03:17:23;;;;;;;10.80;9.83;;;;;;;-143.84;74.92;45045.25;5090096;28;20460;-72
2022/07/31 03:19:52;;;;;;;13.17;10.50;;;;;;;-143.84;74.61;45062.41;5089943;28;20997;-72
2022/07/31 03:22:19;;;;;;;10.80;9.87;;;;;;;-143.84;74.72;45024.31;5088921;28;20466;-72
2022/07/31 03:24:47;;;;;;;11.47;9.67;;;;;;;-143.84;75.18;45031.94;5070102;28;20854;-72
2022/07/31 03:27:15;;;;;;;10.57;8.90;;;;;;;-143.84;75.58;45050.97;5070747;28;20440;-72
2022/07/31 03:29:42;;;;;;;10.97;9.90;;;;;;;-143.84;75.48;45037.66;5070618;28;20440;-72
2022/07/31 03:32:10;;;;;;;10.83;9.03;;;;;;;-143.84;75.53;45054.78;5070836;28;20502;-72
2022/07/31 03:34:37;;;;;;;14.07;9.60;;;;;;;-143.84;75.11;45039.53;5070885;28;20433;-72
2022/07/31 03:37:04;;;;;;;14.27;10.00;;;;;;;-143.84;74.83;45049.06;5074633;28;20494;-72
2022/07/31 03:39:31;;;;;;;10.40;9.40;;;;;;;-143.84;75.07;45037.66;5074746;28;20433;-72
2022/07/31 03:41:59;;;;;;;10.60;9.70;;;;;;;-143.84;75.21;45007.19;5074240;28;20476;-72
2022/07/31 03:44:28;;;;;;;11.80;10.37;;;;;;;-143.84;74.73;45030.03;5074203;28;20444;-72
2022/07/31 03:46:55;;;;;;;12.87;9.77;;;;;;;-143.84;73.99;45030.03;5074596;28;20447;-72
2022/07/31 03:49:23;;;;;;;11.40;8.90;;;;;;;-143.84;72.65;45037.66;5073805;28;20440;-72
2022/07/31 03:51:51;;;;;;;24.47;8.70;;;;;;;-143.84;71.75;45037.66;5073771;28;20522;-72
2022/07/31 03:54:18;;;;;;;11.30;9.53;;;;;;;-143.84;69.57;45010.97;5073926;28;20841;-72
2022/07/31 03:56:50;;;;;;;12.00;9.30;;;;;;;-143.84;67.03;45024.31;5073788;28;20494;-72
2022/07/31 03:59:18;;;;;;;12.70;8.40;;;;;;;-143.84;65.08;44988.13;5074111;28;20507;-72
2022/07/31 04:01:47;;;;;;;10.70;9.67;;;;;;;-143.84;62.97;45005.28;5073823;28;20464;-72
2022/07/31 04:04:17;;;;;;;9.00;8.10;;;;;;;-143.84;61.12;45003.38;5073804;28;20447;-72
2022/07/31 04:06:45;;;;;;;11.43;8.37;;;;;;;-143.84;59.65;44986.22;5073803;28;20440;-72
2022/07/31 04:09:12;;;;;;;8.83;7.93;;;;;;;-143.84;57.74;44976.72;5073444;28;20445;-72
2022/07/31 04:11:39;;;;;;;10.70;7.73;;;;;;;-143.84;55.86;44980.53;5073241;28;20510;-72
2022/07/31 04:14:06;;;;;;;11.03;7.47;;;;;;;-143.84;54.03;44990.03;5073582;28;20440;-72
2022/07/31 04:16:33;;;;;;;7.00;6.50;;;;;;;-143.84;53.03;44961.47;5072903;28;20447;-72
2022/07/31 04:19:02;;;;;;;8.77;6.90;;;;;;;-143.84;52.86;44957.66;5072452;28;20433;-72
2022/07/31 04:21:29;;;;;;;16.00;7.30;;;;;;;-143.84;52.21;44982.41;5073037;28;20477;-72
2022/07/31 04:23:56;;;;;;;13.13;7.07;;;;;;;-143.84;51.91;44978.63;5071643;28;20447;-72
2022/07/31 04:26:23;;;;;;;10.50;6.97;;;;;;;-143.84;51.19;44948.16;5072036;28;20456;-72
2022/07/31 04:28:51;;;;;;;8.50;7.40;;;;;;;-143.84;50.34;44955.75;5072723;28;20503;-72
2022/07/31 04:31:18;;;;;;;6.73;5.93;;;;;;;-143.84;49.73;44957.66;5073101;28;20425;-72
2022/07/31 04:33:46;;;;;;;7.00;6.07;;;;;;;-143.84;49.95;45001.47;5073196;28;20445;-72
2022/07/31 04:36:16;;;;;;;15.23;6.80;;;;;;;-143.84;49.12;44950.06;5073461;28;20456;-72
2022/07/31 04:38:43;;;;;;;6.67;6.07;;;;;;;-143.84;48.14;44934.81;5073391;28;20455;-72
2022/07/31 04:41:10;;;;;;;7.47;6.83;;;;;;;-143.84;48.54;44978.63;5073271;28;20480;-72
2022/07/31 04:43:37;;;;;;;6.40;5.90;;;;;;;-143.84;47.97;44931.00;5073205;28;20498;-72
2022/07/31 04:46:05;;;;;;;6.87;6.27;;;;;;;-143.84;47.90;44938.63;5072616;28;20429;-72
2022/07/31 04:48:32;;;;;;;7.07;6.30;;;;;;;-143.84;47.31;44911.97;5072824;28;20935;-72
2022/07/31 04:50:59;;;;;;;14.10;6.63;;;;;;;-143.84;46.97;44940.53;5073078;28;20490;-72
2022/07/31 04:53:27;;;;;;;8.23;6.33;;;;;;;-143.84;46.61;44946.25;5073171;28;20886;-72
2022/07/31 04:58:47;;;;;;;7.83;5.97;;;;;;;-143.84;46.10;44917.69;5048044;28;20456;-72
2022/07/31 05:01:14;;;;;;;7.50;6.80;;;;;;;-143.84;46.14;44911.97;5073081;28;20492;-72
2022/07/31 05:03:41;;;;;;;11.30;6.67;;;;;;;-143.84;46.77;44921.50;5072926;28;21021;-72
2022/07/31 05:06:12;;;;;;;11.97;6.70;;;;;;;-143.84;46.73;44942.44;5072919;28;20440;-72
2022/07/31 05:08:40;;;;;;;7.67;6.90;;;;;;;-143.84;46.89;44967.19;5072568;28;20437;-72
2022/07/31 05:11:23;;;;;;;11.30;7.50;;;;;;;-143.84;46.95;44929.09;5072327;28;20565;-72
2022/07/31 05:13:51;;;;;;;8.50;7.47;;;;;;;-143.84;47.02;44898.66;5072728;28;21119;-72
2022/07/31 05:16:18;;;;;;;10.20;7.60;;;;;;;-143.84;47.33;44917.69;5072394;28;20445;-72
2022/07/31 05:18:46;;;;;;;7.37;5.93;;;;;;;-143.84;46.71;44929.09;5071677;28;20517;-72
2022/07/31 05:21:14;;;;;;;8.70;6.77;;;;;;;-143.84;46.37;44915.78;5071418;28;21612;-72
2022/07/31 05:23:45;;;;;;;7.23;6.60;;;;;;;-143.84;46.62;44961.47;5081989;28;21029;-72
2022/07/31 05:26:13;;;;;;;12.13;5.87;;;;;;;-143.84;46.64;44902.44;5092069;28;20432;-72
2022/07/31 05:28:41;;;;;;;12.57;6.60;;;;;;;-143.84;47.00;44927.19;5092207;28;20815;-72
2022/07/31 05:31:09;;;;;;;10.00;7.23;;;;;;;-143.84;46.32;44908.16;5091867;28;20447;-72
2022/07/31 05:33:37;;;;;;;6.90;6.20;;;;;;;-143.84;46.62;44915.78;5092243;28;20444;-72
2022/07/31 05:36:05;;;;;;;8.60;5.80;;;;;;;-143.84;45.94;44915.78;5091724;28;20498;-72
2022/07/31 05:38:32;;;;;;;8.47;6.67;;;;;;;-143.84;44.79;44889.13;5091557;28;20440;-72
2022/07/31 05:41:01;;;;;;;8.47;6.50;;;;;;;-143.84;45.78;44927.19;5092073;28;20476;-72
2022/07/31 05:43:28;;;;;;;8.27;6.50;;;;;;;-143.84;45.90;44913.88;5092125;28;21009;-72
2022/07/31 05:45:55;;;;;;;7.50;6.70;;;;;;;-143.84;45.50;44927.19;5091603;28;20448;-72
2022/07/31 05:48:23;;;;;;;11.30;6.50;;;;;;;-143.84;45.02;44873.88;5091573;28;20439;-72
2022/07/31 05:50:51;;;;;;;7.83;6.10;;;;;;;-143.84;45.19;44898.66;5091838;28;20485;-72
2022/07/31 05:53:19;;;;;;;6.83;6.03;;;;;;;-143.84;44.27;44877.69;5091507;28;20515;-72
2022/07/31 05:55:51;;;;;;;9.97;6.17;;;;;;;-143.84;43.40;44883.41;5091389;28;20443;-72
2022/07/31 05:58:20;;;;;;;8.40;6.27;;;;;;;-143.84;43.28;44921.50;5090302;28;20439;-72
2022/07/31 06:00:49;;;;;;;7.40;6.80;;;;;;;-143.84;42.66;44885.31;5090896;28;20959;-72
2022/07/31 06:03:22;;;;;;;6.87;6.13;;;;;;;-143.84;42.33;44879.59;5091525;28;20531;-72
2022/07/31 06:05:49;;;;;;;7.40;5.80;;;;;;;-143.84;42.15;44870.09;5091399;28;20945;-72
2022/07/31 06:08:17;;;;;;;6.80;6.20;;;;;;;-143.84;41.74;44873.88;5091119;28;20468;-72
2022/07/31 06:10:44;;;;;;;7.10;5.90;;;;;;;-143.84;41.52;44866.28;5090651;28;20491;-72
2022/07/31 06:13:12;;;;;;;6.30;5.30;;;;;;;-143.84;41.48;44837.72;5090381;28;20957;-72
2022/07/31 06:15:41;;;;;;;7.60;5.93;;;;;;;-143.84;40.56;44860.56;5091459;28;20439;-72
2022/07/31 06:18:08;;;;;;;6.10;5.60;;;;;;;-143.84;40.06;44856.75;5091268;28;20440;-72
2022/07/31 06:20:36;;;;;;;6.37;5.40;;;;;;;-143.84;39.41;44858.66;5091441;28;20433;-72
2022/07/31 06:23:03;;;;;;;6.27;5.77;;;;;;;-143.84;39.04;44849.13;5094540;28;20991;-72
2022/07/31 06:25:30;;;;;;;8.30;5.77;;;;;;;-143.84;39.72;44839.63;5111992;28;20476;-72
2022/07/31 06:27:57;;;;;;;6.77;5.97;;;;;;;-143.84;39.10;44830.09;5111505;28;20526;-72
2022/07/31 06:30:25;;;;;;;6.37;5.80;;;;;;;-143.84;38.79;44824.38;5111963;28;20435;-72
2022/07/31 06:32:54;;;;;;;9.33;5.47;;;;;;;-143.84;38.58;44828.19;5112186;28;20450;-72
2022/07/31 06:35:21;;;;;;;6.73;5.70;;;;;;;-143.84;37.70;44839.63;5111544;28;20444;-72
2022/07/31 06:37:48;;;;;;;9.67;6.13;;;;;;;-143.84;37.42;44833.91;5111718;28;20427;-72
2022/07/31 06:40:15;;;;;;;6.63;5.67;;;;;;;-143.84;38.06;44820.56;5111448;28;20432;-72
2022/07/31 06:42:43;;;;;;;6.70;6.07;;;;;;;-143.84;38.00;44793.91;5112022;28;20999;-72
2022/07/31 06:45:11;;;;;;;17.87;6.20;;;;;;;-143.84;38.68;44786.31;5111658;28;20443;-72
2022/07/31 06:47:38;;;;;;;6.40;5.20;;;;;;;-143.84;37.13;44765.34;5110596;28;20877;-72
2022/07/31 06:50:08;;;;;;;8.63;6.00;;;;;;;-143.84;36.14;44801.53;5111016;28;20438;-72
2022/07/31 06:52:36;;;;;;;15.13;5.43;;;;;;;-143.84;35.89;44752.03;5111097;28;20508;-72
2022/07/31 06:55:03;;;;;;;8.30;4.73;;;;;;;-143.84;35.57;44774.88;5111264;28;20431;-72
2022/07/31 06:57:31;;;;;;;5.40;4.87;;;;;;;-143.84;34.60;44769.16;5111305;28;20858;-72
2022/07/31 06:59:58;;;;;;;6.50;6.00;;;;;;;-143.84;35.54;44792.00;5111106;28;20476;-72
2022/07/31 07:02:25;;;;;;;7.90;6.50;;;;;;;-143.84;36.09;44753.94;5110821;28;20892;-72
2022/07/31 07:04:53;;;;;;;11.10;7.37;;;;;;;-143.84;37.04;44826.28;5111577;28;20435;-72
2022/07/31 07:07:21;;;;;;;9.03;7.07;;;;;;;-143.84;37.55;44797.72;5111497;28;20526;-72
2022/07/31 07:09:48;;;;;;;9.77;6.27;;;;;;;-143.84;36.96;44778.69;5110019;28;20446;-72
2022/07/31 07:12:16;;;;;;;9.30;7.27;;;;;;;-143.84;38.49;44826.28;5110902;28;20470;-72
2022/07/31 07:14:43;;;;;;;8.60;7.07;;;;;;;-143.84;38.86;44801.53;5111178;28;20967;-72
2022/07/31 07:17:10;;;;;;;8.93;7.20;;;;;;;-143.84;38.63;44824.38;5110683;28;20431;-72
2022/07/31 07:19:41;;;;;;;11.80;8.17;;;;;;;-143.84;38.77;44786.31;5110474;28;20439;-72
2022/07/31 07:22:08;;;;;;;9.37;8.03;;;;;;;-143.84;39.22;44847.22;5111078;28;20529;-72
2022/07/31 07:24:37;;;;;;;10.67;7.87;;;;;;;-143.84;39.80;44854.84;5095984;28;20509;-72
2022/07/31 07:27:04;;;;;;;7.80;7.07;;;;;;;-143.84;39.77;44818.66;5090792;28;20444;-72
2022/07/31 07:29:31;;;;;;;8.57;7.77;;;;;;;-143.84;40.05;44826.28;5090514;28;20432;-72
2022/07/31 07:31:58;;;;;;;10.57;8.37;;;;;;;-143.84;40.43;44832.00;5090788;28;20811;-72
2022/07/31 07:34:26;;;;;;;10.50;8.00;;;;;;;-143.84;39.52;44833.91;5090486;28;20823;-72
2022/07/31 07:36:54;;;;;;;12.00;9.30;;;;;;;-143.84;40.21;44860.56;5090410;28;20432;-72
2022/07/31 07:39:21;;;;;;;9.80;8.90;;;;;;;-143.84;40.71;44862.47;5090467;28;20440;-72
2022/07/31 07:41:50;;;;;;;10.50;8.50;;;;;;;-143.84;40.56;44841.53;5089707;28;20471;-72
2022/07/31 07:44:17;;;;;;;15.60;7.83;;;;;;;-143.84;39.83;44862.47;5090103;28;20447;-72
2022/07/31 07:46:44;;;;;;;13.30;7.60;;;;;;;-143.84;39.83;44873.88;5090218;28;20519;-72
2022/07/31 07:49:12;;;;;;;16.87;8.10;;;;;;;-143.84;39.54;44835.81;5090245;28;20435;-72
2022/07/31 07:51:39;;;;;;;9.30;8.27;;;;;;;-143.84;40.58;44870.09;5090378;28;20452;-72
2022/07/31 07:54:07;;;;;;;13.83;8.40;;;;;;;-143.84;40.91;44841.53;5090429;28;20447;-72
2022/07/31 07:56:34;;;;;;;9.33;8.50;;;;;;;-143.84;39.88;44833.91;5090427;28;20427;-72
2022/07/31 07:59:02;;;;;;;8.67;7.77;;;;;;;-143.84;39.11;44805.34;5090311;28;20435;-72
2022/07/31 08:01:30;;;;;;;18.20;8.57;;;;;;;-143.84;39.83;44832.00;5089857;28;20497;-72
2022/07/31 08:03:57;;;;;;;9.30;8.40;;;;;;;-143.84;39.93;44828.19;5099828;28;20431;-72
2022/07/31 08:06:24;;;;;;;10.67;7.70;;;;;;;-143.84;39.36;44839.63;5106734;28;20499;-72
2022/07/31 08:08:51;;;;;;;8.40;7.50;;;;;;;-143.84;39.26;44786.31;5095680;28;20452;-72
2022/07/31 08:11:18;;;;;;;11.90;7.70;;;;;;;-143.84;38.23;44795.81;5100511;28;20467;-72
2022/07/31 08:13:46;;;;;;;12.00;8.00;;;;;;;-143.84;38.19;44793.91;5099871;28;20510;-72
2022/07/31 08:16:15;;;;;;;19.97;7.20;;;;;;;-143.84;37.75;44805.34;5101068;28;20995;-72
2022/07/31 08:18:42;;;;;;;8.97;7.40;;;;;;;-143.84;37.13;44792.00;5099057;28;20444;-73
2022/07/31 08:21:09;;;;;;;10.07;8.10;;;;;;;-143.84;37.64;44792.00;5107177;28;20443;-72
2022/07/31 08:23:36;;;;;;;10.50;8.10;;;;;;;-143.84;38.58;44833.91;5097867;28;20493;-72
2022/07/31 08:26:07;;;;;;;14.63;7.50;;;;;;;-143.84;37.75;44790.13;5106541;28;20935;-72
2022/07/31 08:28:34;;;;;;;8.60;7.70;;;;;;;-143.84;36.96;44788.22;5101772;28;20464;-72
2022/07/31 08:31:02;;;;;;;10.90;7.10;;;;;;;-143.84;37.70;44790.13;5093368;28;20496;-72
2022/07/31 08:33:31;;;;;;;11.27;7.63;;;;;;;-143.84;37.59;44828.19;5093365;28;20440;-72
2022/07/31 08:35:59;;;;;;;16.40;10.30;;;;;;;-143.84;36.88;44828.19;5093025;28;21005;-72
2022/07/31 08:38:27;;;;;;;14.50;11.00;;;;;;;-143.84;37.34;44809.16;5102491;28;20445;-72
2022/07/31 08:40:54;;;;;;;13.87;9.03;;;;;;;-143.84;37.24;44837.72;5105105;28;20447;-72
2022/07/31 08:43:21;;;;;;;8.70;7.90;;;;;;;-143.84;36.40;44801.53;5090443;28;20528;-72
2022/07/31 08:45:51;;;;;;;11.47;8.03;;;;;;;-143.84;36.61;44795.81;5104971;28;20442;-72
2022/07/31 08:48:24;;;;;;;10.03;8.60;;;;;;;-143.84;37.06;44809.16;5101599;28;20494;-72
2022/07/31 08:50:53;;;;;;;9.70;8.13;;;;;;;-143.84;37.18;44818.66;5100625;28;20471;-72
2022/07/31 08:53:22;;;;;;;10.83;7.90;;;;;;;-143.84;37.66;44820.56;5097327;28;20459;-72
2022/07/31 08:55:50;;;;;;;9.17;8.17;;;;;;;-143.84;37.97;44812.97;5091704;28;21291;-73
2022/07/31 08:58:19;;;;;;;9.50;8.70;;;;;;;-143.84;37.95;44835.81;5091407;28;20538;-72
2022/07/31 09:00:46;;;;;;;9.37;8.47;;;;;;;-143.84;38.38;44828.19;5091815;28;20519;-73
2022/07/31 09:03:14;;;;;;;13.30;9.47;;;;;;;-143.84;37.87;44830.09;5092089;28;20475;-72
2022/07/31 09:05:41;;;;;;;9.60;7.97;;;;;;;-143.84;39.92;44816.78;5092611;28;20439;-72
2022/07/31 09:08:10;;;;;;;9.33;8.50;;;;;;;-143.84;38.73;44793.91;5092976;28;20906;-72
2022/07/31 09:10:37;;;;;;;11.50;7.80;;;;;;;-143.84;37.67;44774.88;5092208;28;20484;-72
2022/07/31 09:13:13;;;;;;;10.70;7.73;;;;;;;-143.84;37.76;44793.91;5092545;28;20852;-72
2022/07/31 09:15:40;;;;;;;10.27;9.07;;;;;;;-143.84;37.40;44801.53;5090347;28;20446;-72
2022/07/31 09:18:17;;;;;;;8.37;7.67;;;;;;;-143.84;38.98;44822.47;5083741;28;21327;-72
2022/07/31 09:20:55;;;;;;;8.60;7.90;;;;;;;-143.84;37.88;44797.72;5089281;28;20439;-72
2022/07/31 09:23:25;;;;;;;9.00;8.30;;;;;;;-143.84;39.01;44851.03;5081195;28;20490;-72
2022/07/31 09:25:54;;;;;;;9.53;8.50;;;;;;;-143.84;39.04;44832.00;5084962;28;20448;-72
2022/07/31 09:28:21;;;;;;;11.87;7.00;;;;;;;-143.84;37.96;44818.66;5082908;28;20441;-72
2022/07/31 09:30:55;;;;;;;9.77;8.00;;;;;;;-143.84;39.46;44799.63;5091745;28;20501;-72
2022/07/31 09:33:22;;;;;;;10.63;8.37;;;;;;;-143.84;39.09;44830.09;5086079;28;20444;-72
2022/07/31 09:35:49;;;;;;;10.67;8.00;;;;;;;-143.84;39.10;44812.97;5081499;28;20452;-72
2022/07/31 09:38:17;;;;;;;9.13;8.33;;;;;;;-143.84;39.23;44852.94;5097750;28;20949;-72
2022/07/31 09:40:45;;;;;;;12.30;8.23;;;;;;;-143.84;39.69;44847.22;5102806;28;20501;-72
2022/07/31 09:43:16;;;;;;;10.23;8.53;;;;;;;-143.84;40.84;44851.03;5098213;28;20471;-72
2022/07/31 09:45:45;;;;;;;8.60;7.67;;;;;;;-143.84;40.29;44845.31;5105372;28;20438;-72
2022/07/31 09:48:12;;;;;;;9.07;8.13;;;;;;;-143.84;40.60;44841.53;5111904;28;20443;-73
2022/07/31 09:50:46;;;;;;;10.53;6.67;;;;;;;-143.84;38.77;44792.00;5112193;28;20838;-73
2022/07/31 09:53:13;;;;;;;8.60;7.80;;;;;;;-143.84;38.41;44843.44;5111964;28;20438;-73
2022/07/31 09:55:51;;;;;;;12.90;7.50;;;;;;;-143.84;38.24;44835.81;5112197;28;20500;-73
2022/07/31 09:58:18;;;;;;;9.47;7.40;;;;;;;-143.84;38.97;44828.19;5098071;28;20957;-72
2022/07/31 10:00:46;;;;;;;8.07;7.30;;;;;;;-143.84;39.03;44812.97;5092146;28;20925;-72
2022/07/31 10:03:16;;;;;;;8.33;7.53;;;;;;;-143.84;39.66;44793.91;5092005;28;21054;-72
2022/07/31 10:05:44;;;;;;;8.03;7.30;;;;;;;-143.84;40.09;44805.34;5094442;28;20431;-72
2022/07/31 10:08:16;;;;;;;11.13;7.27;;;;;;;-143.84;39.35;44837.72;5100449;28;20968;-72
2022/07/31 10:10:45;;;;;;;8.40;4.80;;;;;;;-143.84;37.28;44833.91;5101559;28;20481;-72
2022/07/31 10:13:18;;;;;;;5.43;5.00;;;;;;;-143.84;36.99;44835.81;5105664;28;20443;-72
2022/07/31 10:15:49;;;;;;;11.03;5.20;;;;;;;-143.84;37.09;44832.00;5099838;28;20435;-72
2022/07/31 10:18:18;;;;;;;6.17;5.53;;;;;;;-143.84;37.01;44832.00;5095092;28;20965;-72
2022/07/31 10:20:52;;;;;;;9.87;4.80;;;;;;;-143.84;38.26;44847.22;5100452;28;20494;-72
2022/07/31 10:23:22;;;;;;;5.97;5.27;;;;;;;-143.84;37.81;44891.03;5096895;28;20566;-74
2022/07/31 10:25:53;;;;;;;5.87;5.27;;;;;;;-143.84;37.77;44835.81;5101109;28;20986;-74
2022/07/31 10:28:22;;;;;;;7.47;5.33;;;;;;;-143.84;38.79;44875.78;5091276;28;20908;-72
2022/07/31 10:30:50;;;;;;;5.20;4.70;;;;;;;-143.84;38.62;44864.38;5090520;28;20452;-74
2022/07/31 10:33:18;;;;;;;11.30;4.80;;;;;;;-143.84;39.30;44889.13;5090786;28;20451;-74
2022/07/31 10:35:54;;;;;;;6.10;5.23;;;;;;;-143.84;39.43;44889.13;5095772;28;20801;-72
2022/07/31 10:38:26;;;;;;;5.73;5.23;;;;;;;-143.84;40.09;44868.19;5091122;28;20427;-73
2022/07/31 10:41:03;;;;;;;24.00;5.80;;;;;;;-143.84;40.07;44851.03;5091202;28;20898;-72
2022/07/31 10:43:43;;;;;;;9.97;5.60;;;;;;;-143.84;40.00;44858.66;5090573;28;20569;-72
2022/07/31 10:46:11;;;;;;;10.33;5.50;;;;;;;-143.84;40.28;44881.50;5090650;28;20511;-72
2022/07/31 10:48:38;;;;;;;7.13;4.80;;;;;;;-143.84;40.23;44883.41;5093454;28;20444;-71
2022/07/31 10:51:08;;;;;;;5.83;5.00;;;;;;;-143.84;40.26;44866.28;5093771;28;20435;-72
2022/07/31 10:53:37;;;;;;;7.17;5.07;;;;;;;-143.84;40.61;44866.28;5089952;28;20571;-72
2022/07/31 10:56:09;;;;;;;6.30;5.57;;;;;;;-143.84;40.18;44864.38;5090124;28;20440;-73
2022/07/31 10:58:48;;;;;;;7.00;4.80;;;;;;;-143.84;39.29;44860.56;5094396;28;20440;-73
2022/07/31 11:01:15;;;;;;;5.87;5.17;;;;;;;-143.84;39.43;44887.22;5111262;28;20572;-73
2022/07/31 11:03:45;;;;;;;10.97;4.57;;;;;;;-143.84;39.43;44849.13;5111240;28;20524;-76
2022/07/31 11:06:14;;;;;;;6.20;4.70;;;;;;;-143.84;39.00;44868.19;5109792;28;20867;-73
2022/07/31 11:08:42;;;;;;;6.80;4.77;;;;;;;-143.84;39.20;44841.53;5098337;28;20435;-72
2022/07/31 11:11:10;;;;;;;5.17;4.87;;;;;;;-143.84;39.92;44873.88;5092784;28;20471;-73
2022/07/31 11:13:50;;;;;;;5.80;5.13;;;;;;;-143.84;40.29;44852.94;5101219;28;20500;-73
2022/07/31 11:16:19;;;;;;;5.17;4.77;;;;;;;-143.84;39.97;44854.84;5094778;28;20463;-72
2022/07/31 11:18:57;;;;;;;5.83;5.33;;;;;;;-143.84;39.03;44879.59;5089857;28;20424;-73
2022/07/31 11:21:31;;;;;;;5.97;5.50;;;;;;;-143.84;40.22;44892.94;5089711;28;20428;-72
2022/07/31 11:23:58;;;;;;;4.70;4.30;;;;;;;-143.84;39.29;44841.53;5093075;28;21026;-73
2022/07/31 11:26:26;;;;;;;7.00;5.20;;;;;;;-143.84;40.74;44866.28;5100014;28;20423;-72